Time;durP1;ratioP1;P1;durP2;ratioP2;P2;SDS_P1;SDS_P2;PMS_P1;PMS_P2;Temp;Humidity;BMP_temperature;BMP_pressure;BME280_temperature;BME280_humidity;BME280_pressure;Samples;Min_cycle;Max_cycle;Signal;HPM_P1;HPM_P2
2022/12/27 00:01:17;;;;;;;4.97;2.30;;;;;;;;;;4972886;28;20050;-56
2022/12/27 00:03:43;;;;;;;4.25;2.40;;;;;;;;;;4964069;28;20045;-58
2022/12/27 00:06:11;;;;;;;5.13;2.22;;;;;;;;;;4970649;28;20035;-56
2022/12/27 00:08:36;;;;;;;;;;;;;;;;;;4966871;28;20033;-58
2022/12/27 00:11:08;;;;;;;4.43;2.50;;;;;;;;;;4963363;28;19915;-57
2022/12/27 00:13:33;;;;;;;5.07;2.50;;;;;;;;;;4972084;28;20065;-57
2022/12/27 00:16:11;;;;;;;5.72;2.60;;;;;;;;;;4967173;28;20026;-58
2022/12/27 00:18:37;;;;;;;5.00;2.78;;;;;;;;;;4965443;28;20129;-55
2022/12/27 00:21:03;;;;;;;5.93;2.53;;;;;;;;;;4971590;28;20209;-57
2022/12/27 00:23:30;;;;;;;3.95;2.20;;;;;;;;;;4967215;28;20054;-57
2022/12/27 00:25:56;;;;;;;;;;;;;;;;;;4969946;28;20517;-60
2022/12/27 00:28:21;;;;;;;5.75;2.13;;;;;;;;;;4963433;28;19956;-55
2022/12/27 00:30:52;;;;;;;5.57;2.08;;;;;;;;;;4981223;28;20165;-59
2022/12/27 00:33:18;;;;;;;3.55;1.67;;;;;;;;;;4975668;28;20362;-57
2022/12/27 00:35:43;;;;;;;5.70;1.85;;;;;;;;;;4963064;28;20042;-56
2022/12/27 00:38:08;;;;;;;4.32;1.50;;;;;;;;;;4970538;28;20050;-57
2022/12/27 00:40:37;;;;;;;7.68;2.22;;;;;;;;;;4964715;28;20069;-58
2022/12/27 00:43:03;;;;;;;4.65;1.65;;;;;;;;;;4965558;28;20712;-63
2022/12/27 00:45:29;;;;;;;1.30;1.20;;;;;;;;;;4971570;28;20066;-58
2022/12/27 00:47:54;;;;;;;2.22;1.50;;;;;;;;;;4961617;28;20569;-56
2022/12/27 00:50:19;;;;;;;2.10;1.23;;;;;;;;;;4972927;28;20035;-57
2022/12/27 00:52:44;;;;;;;3.10;1.50;;;;;;;;;;4963293;28;20286;-58
2022/12/27 00:55:10;;;;;;;4.63;1.70;;;;;;;;;;4963196;28;20490;-57
2022/12/27 00:57:35;;;;;;;1.63;1.30;;;;;;;;;;4969256;28;20066;-58
2022/12/27 01:00:01;;;;;;;3.90;1.55;;;;;;;;;;4963720;28;20045;-58
2022/12/27 01:02:27;;;;;;;3.60;1.50;;;;;;;;;;4965714;28;20608;-58
2022/12/27 01:04:53;;;;;;;3.30;1.58;;;;;;;;;;4965292;28;20474;-57
2022/12/27 01:07:19;;;;;;;4.28;1.65;;;;;;;;;;4965357;28;20457;-58
2022/12/27 01:09:44;;;;;;;2.05;1.55;;;;;;;;;;4968131;28;20030;-59
2022/12/27 01:12:10;;;;;;;4.45;1.50;;;;;;;;;;4964939;28;20034;-57
2022/12/27 01:14:35;;;;;;;5.47;1.48;;;;;;;;;;4968090;28;20061;-58
2022/12/27 01:17:00;;;;;;;5.13;1.50;;;;;;;;;;4962106;28;20027;-59
2022/12/27 01:19:26;;;;;;;3.90;1.50;;;;;;;;;;4961893;28;20062;-59
2022/12/27 01:21:51;;;;;;;3.67;1.80;;;;;;;;;;4969555;28;20052;-59
2022/12/27 01:24:16;;;;;;;1.88;1.50;;;;;;;;;;4967742;28;20579;-58
2022/12/27 01:26:42;;;;;;;5.05;1.85;;;;;;;;;;4977519;28;20045;-57
2022/12/27 01:29:10;;;;;;;4.43;1.70;;;;;;;;;;4967134;28;20034;-58
2022/12/27 01:31:35;;;;;;;1.63;1.40;;;;;;;;;;4972505;28;20057;-58
2022/12/27 01:34:00;;;;;;;10.77;1.85;;;;;;;;;;4979392;28;20605;-57
2022/12/27 01:36:27;;;;;;;4.78;1.40;;;;;;;;;;4970740;28;20114;-57
2022/12/27 01:38:52;;;;;;;2.37;1.40;;;;;;;;;;4986538;28;20054;-55
2022/12/27 01:44:25;;;;;;;3.63;1.67;;;;;;;;;;4967536;28;20413;-58
2022/12/27 01:46:50;;;;;;;3.80;1.70;;;;;;;;;;4974971;28;20038;-58
2022/12/27 01:49:15;;;;;;;3.72;1.60;;;;;;;;;;4966480;28;20085;-58
2022/12/27 01:51:41;;;;;;;2.85;1.70;;;;;;;;;;4966749;28;20019;-57
2022/12/27 01:54:06;;;;;;;3.08;1.70;;;;;;;;;;4975350;28;20035;-58
2022/12/27 01:56:31;;;;;;;4.72;1.95;;;;;;;;;;4963602;28;20062;-58
2022/12/27 01:59:01;;;;;;;4.10;2.00;;;;;;;;;;4974023;28;20058;-58
2022/12/27 02:01:32;;;;;;;6.82;1.50;;;;;;;;;;4957559;28;20167;-58
2022/12/27 02:04:03;;;;;;;4.15;1.73;;;;;;;;;;4967256;28;20608;-58
2022/12/27 02:06:29;;;;;;;4.55;1.70;;;;;;;;;;4986120;28;20042;-57
2022/12/27 02:09:06;;;;;;;4.18;1.90;;;;;;;;;;4970961;28;20549;-58
2022/12/27 02:11:51;;;;;;;1.92;1.50;;;;;;;;;;4970724;28;20113;-59
2022/12/27 02:14:19;;;;;;;3.30;1.50;;;;;;;;;;4971973;28;20040;-57
2022/12/27 02:16:44;;;;;;;3.35;1.75;;;;;;;;;;4967688;28;20037;-56
2022/12/27 02:19:16;;;;;;;2.70;1.70;;;;;;;;;;4973659;28;20039;-59
2022/12/27 02:21:58;;;;;;;3.28;2.10;;;;;;;;;;4964522;28;20726;-58
2022/12/27 02:24:29;;;;;;;4.68;2.00;;;;;;;;;;4971306;28;20035;-58
2022/12/27 02:27:00;;;;;;;5.47;1.80;;;;;;;;;;4972080;28;20046;-58
2022/12/27 02:29:48;;;;;;;4.95;1.90;;;;;;;;;;4967746;28;20085;-58
2022/12/27 02:32:34;;;;;;;5.32;1.90;;;;;;;;;;4964879;28;20038;-58
2022/12/27 02:35:02;;;;;;;6.88;1.90;;;;;;;;;;4973691;28;20244;-59
2022/12/27 02:37:29;;;;;;;6.60;2.30;;;;;;;;;;4964276;28;20022;-58
2022/12/27 02:53:02;;;;;;;10.15;2.83;;;;;;;;;;4967783;28;20038;-57
2022/12/27 02:54:05;;;;;;;10.43;3.38;;;;;;;;;;4968656;28;20033;-58
2022/12/27 02:57:07;;;;;;;7.82;3.00;;;;;;;;;;4965714;28;20467;-58
2022/12/27 03:09:00;;;;;;;4.22;2.40;;;;;;;;;;4965564;28;21327;-59
2022/12/27 03:17:07;;;;;;;3.13;2.13;;;;;;;;;;4967710;28;20482;-58
2022/12/27 03:33:11;;;;;;;4.05;2.53;;;;;;;;;;4971324;28;20037;-58
2022/12/27 03:33:22;;;;;;;3.90;2.60;;;;;;;;;;4972159;28;20679;-58
2022/12/27 03:38:01;;;;;;;5.07;2.72;;;;;;;;;;4970629;28;20037;-57
2022/12/27 03:38:35;;;;;;;6.10;2.45;;;;;;;;;;4971919;28;20045;-58
2022/12/27 03:43:46;;;;;;;6.25;2.60;;;;;;;;;;4971732;28;20041;-57
2022/12/27 03:46:34;;;;;;;5.15;2.88;;;;;;;;;;4963741;28;20129;-57
2022/12/27 03:49:20;;;;;;;3.88;2.45;;;;;;;;;;4966222;28;20121;-56
2022/12/27 03:52:03;;;;;;;4.97;2.70;;;;;;;;;;4972739;28;20027;-59
2022/12/27 03:54:30;;;;;;;7.75;2.60;;;;;;;;;;4965453;28;20045;-58
2022/12/27 03:56:57;;;;;;;7.10;2.47;;;;;;;;;;4967911;28;20041;-58
2022/12/27 03:59:23;;;;;;;4.10;2.35;;;;;;;;;;4987739;28;20089;-58
2022/12/27 04:01:49;;;;;;;4.95;2.55;;;;;;;;;;4963611;28;20023;-58
2022/12/27 04:04:17;;;;;;;6.50;3.00;;;;;;;;;;4970307;28;20446;-58
2022/12/27 04:06:42;;;;;;;6.50;2.90;;;;;;;;;;4962506;28;20045;-59
2022/12/27 04:36:27;;;;;;;9.95;3.88;;;;;;;;;;4969654;28;20061;-59
2022/12/27 04:38:53;;;;;;;13.82;4.38;;;;;;;;;;4963760;28;20057;-58
2022/12/27 04:55:07;;;;;;;8.48;3.65;;;;;;;;;;4961360;28;20034;-58
2022/12/27 04:57:32;;;;;;;7.35;3.85;;;;;;;;;;4967484;28;20717;-58
2022/12/27 05:02:43;;;;;;;7.22;3.70;;;;;;;;;;4971489;28;20755;-59
2022/12/27 05:05:08;;;;;;;7.65;3.60;;;;;;;;;;4971288;28;20912;-59
2022/12/27 05:15:47;;;;;;;6.75;3.10;;;;;;;;;;4994603;28;20019;-58
2022/12/27 05:18:12;;;;;;;7.05;3.28;;;;;;;;;;4970939;28;20034;-59
2022/12/27 05:20:38;;;;;;;10.50;4.70;;;;;;;;;;4976084;28;20030;-58
2022/12/27 05:25:47;;;;;;;7.75;4.05;;;;;;;;;;4969439;28;20030;-57
2022/12/27 05:28:12;;;;;;;7.75;4.00;;;;;;;;;;4975306;28;20480;-58
2022/12/27 05:30:39;;;;;;;9.68;4.80;;;;;;;;;;4971005;28;20143;-58
2022/12/27 05:33:05;;;;;;;10.48;6.00;;;;;;;;;;4974188;28;20087;-59
2022/12/27 05:35:30;;;;;;;14.15;5.60;;;;;;;;;;4969083;28;20053;-59
2022/12/27 05:37:56;;;;;;;10.93;5.30;;;;;;;;;;4970539;28;20034;-59
2022/12/27 05:40:22;;;;;;;12.07;5.53;;;;;;;;;;4975513;28;20053;-58
2022/12/27 05:42:47;;;;;;;9.48;5.13;;;;;;;;;;4970218;28;20026;-59
2022/12/27 05:45:13;;;;;;;9.55;5.18;;;;;;;;;;4975554;28;20088;-60
2022/12/27 05:47:38;;;;;;;13.10;4.65;;;;;;;;;;4972556;28;20031;-59
2022/12/27 05:50:04;;;;;;;7.63;4.78;;;;;;;;;;4975321;28;20096;-58
2022/12/27 05:52:29;;;;;;;8.35;5.13;;;;;;;;;;4976236;28;20469;-58
2022/12/27 05:54:55;;;;;;;8.57;5.07;;;;;;;;;;4970273;28;20057;-58
2022/12/27 05:57:20;;;;;;;9.48;5.07;;;;;;;;;;4972750;28;20041;-58
2022/12/27 05:59:45;;;;;;;9.70;4.78;;;;;;;;;;4976015;28;20455;-58
2022/12/27 06:02:11;;;;;;;9.07;5.25;;;;;;;;;;4966329;28;20068;-58
2022/12/27 06:04:36;;;;;;;12.02;5.32;;;;;;;;;;4971645;28;20441;-58
2022/12/27 06:07:01;;;;;;;11.38;5.20;;;;;;;;;;4974739;28;20990;-59
2022/12/27 06:09:27;;;;;;;7.82;4.75;;;;;;;;;;4962902;28;20026;-60
2022/12/27 06:11:52;;;;;;;15.88;7.57;;;;;;;;;;4970796;28;20056;-59
2022/12/27 06:14:17;;;;;;;11.40;6.22;;;;;;;;;;4965854;28;20033;-60
2022/12/27 06:16:43;;;;;;;12.20;6.47;;;;;;;;;;4970685;28;20242;-58
2022/12/27 06:19:08;;;;;;;9.30;5.50;;;;;;;;;;4968981;28;20099;-57
2022/12/27 06:21:33;;;;;;;8.02;4.93;;;;;;;;;;4966731;28;20110;-59
2022/12/27 06:23:59;;;;;;;11.73;5.10;;;;;;;;;;4971946;28;20042;-57
2022/12/27 06:26:26;;;;;;;7.53;4.25;;;;;;;;;;4967542;28;20038;-59
2022/12/27 06:28:51;;;;;;;6.65;3.70;;;;;;;;;;4972799;28;21691;-58
2022/12/27 06:31:17;;;;;;;10.13;3.83;;;;;;;;;;4968449;28;20465;-58
2022/12/27 06:33:43;;;;;;;9.60;4.50;;;;;;;;;;4970067;28;20042;-58
2022/12/27 06:36:10;;;;;;;8.30;4.28;;;;;;;;;;4970655;28;20068;-58
2022/12/27 06:38:38;;;;;;;10.50;4.68;;;;;;;;;;4963509;28;20027;-58
2022/12/27 06:41:04;;;;;;;7.38;4.32;;;;;;;;;;4971703;28;20046;-58
2022/12/27 06:43:33;;;;;;;6.20;3.67;;;;;;;;;;4968723;28;20042;-59
2022/12/27 06:45:59;;;;;;;13.20;4.20;;;;;;;;;;4964624;28;20484;-59
2022/12/27 06:48:25;;;;;;;9.27;4.10;;;;;;;;;;4971473;28;20375;-59
2022/12/27 06:50:50;;;;;;;10.20;4.32;;;;;;;;;;4967980;28;20544;-58
2022/12/27 06:53:16;;;;;;;12.82;6.10;;;;;;;;;;4972670;28;20551;-58
2022/12/27 06:55:41;;;;;;;8.57;4.93;;;;;;;;;;4964276;28;20485;-58
2022/12/27 06:58:06;;;;;;;15.52;6.72;;;;;;;;;;4975146;28;20038;-58
2022/12/27 07:00:31;;;;;;;13.93;7.05;;;;;;;;;;4970848;28;20069;-58
2022/12/27 07:02:59;;;;;;;16.17;8.55;;;;;;;;;;4965023;28;20039;-58
2022/12/27 07:05:24;;;;;;;11.70;6.65;;;;;;;;;;4968243;28;20133;-58
2022/12/27 07:07:52;;;;;;;12.05;4.68;;;;;;;;;;4967294;28;20396;-58
2022/12/27 07:10:18;;;;;;;7.55;4.20;;;;;;;;;;4965839;28;20848;-61
2022/12/27 07:12:43;;;;;;;11.55;4.30;;;;;;;;;;4971672;28;20026;-58
2022/12/27 07:15:08;;;;;;;8.15;4.80;;;;;;;;;;4964803;28;20086;-56
2022/12/27 07:17:34;;;;;;;8.85;4.55;;;;;;;;;;4972290;28;20473;-57
2022/12/27 07:20:00;;;;;;;6.60;4.13;;;;;;;;;;4964359;28;20114;-58
2022/12/27 07:22:26;;;;;;;12.88;4.22;;;;;;;;;;4968105;28;20100;-59
2022/12/27 07:24:51;;;;;;;7.20;3.60;;;;;;;;;;4985513;28;20116;-59
2022/12/27 07:27:17;;;;;;;6.97;4.40;;;;;;;;;;4968363;28;20074;-57
2022/12/27 07:29:42;;;;;;;9.63;4.93;;;;;;;;;;4969122;28;20089;-58
2022/12/27 07:32:07;;;;;;;8.23;4.22;;;;;;;;;;4965324;28;20200;-59
2022/12/27 07:34:33;;;;;;;7.43;4.25;;;;;;;;;;4962321;28;20035;-58
2022/12/27 07:36:58;;;;;;;9.48;4.40;;;;;;;;;;4971903;28;20502;-58
2022/12/27 07:39:23;;;;;;;7.25;4.00;;;;;;;;;;4951045;28;20057;-59
2022/12/27 07:41:49;;;;;;;8.88;4.80;;;;;;;;;;4970648;28;20489;-56
2022/12/27 07:44:14;;;;;;;10.38;4.50;;;;;;;;;;4968920;28;20078;-57
2022/12/27 07:46:39;;;;;;;9.85;4.70;;;;;;;;;;4963183;28;20037;-61
2022/12/27 07:49:06;;;;;;;6.65;3.92;;;;;;;;;;4976093;28;20026;-57
2022/12/27 07:51:31;;;;;;;9.30;4.30;;;;;;;;;;4965095;28;20034;-58
2022/12/27 07:53:57;;;;;;;7.55;4.30;;;;;;;;;;4974822;28;20061;-56
2022/12/27 07:56:24;;;;;;;10.70;4.65;;;;;;;;;;4964057;28;20105;-58
2022/12/27 07:58:49;;;;;;;9.55;4.50;;;;;;;;;;4966178;28;20043;-58
2022/12/27 08:01:15;;;;;;;10.50;4.82;;;;;;;;;;4970503;28;20035;-58
2022/12/27 08:03:41;;;;;;;9.05;4.70;;;;;;;;;;4964422;28;20473;-59
2022/12/27 08:06:07;;;;;;;9.48;4.15;;;;;;;;;;4976939;28;20117;-58
2022/12/27 08:08:37;;;;;;;10.25;5.00;;;;;;;;;;4962359;28;20049;-56
2022/12/27 08:11:02;;;;;;;9.40;4.45;;;;;;;;;;4963956;28;20031;-58
2022/12/27 08:13:29;;;;;;;16.30;6.97;;;;;;;;;;4969925;28;20034;-58
2022/12/27 08:15:54;;;;;;;16.85;6.75;;;;;;;;;;4963534;28;20694;-58
2022/12/27 08:18:20;;;;;;;38.97;21.38;;;;;;;;;;4971008;28;20027;-58
2022/12/27 08:20:45;;;;;;;32.22;18.55;;;;;;;;;;4968196;28;20157;-58
2022/12/27 08:23:10;;;;;;;17.02;7.13;;;;;;;;;;4964924;28;20098;-58
2022/12/27 08:25:35;;;;;;;13.48;5.60;;;;;;;;;;4970546;28;20038;-59
2022/12/27 08:28:08;;;;;;;14.52;7.18;;;;;;;;;;4962673;28;20022;-58
2022/12/27 08:30:33;;;;;;;14.38;6.72;;;;;;;;;;4970773;28;20030;-60
2022/12/27 08:33:03;;;;;;;18.15;8.43;;;;;;;;;;4975494;28;20049;-58
2022/12/27 08:35:28;;;;;;;17.25;8.90;;;;;;;;;;4973807;28;20506;-58
2022/12/27 08:37:53;;;;;;;20.65;8.95;;;;;;;;;;4973851;28;20026;-58
2022/12/27 08:40:19;;;;;;;20.85;10.80;;;;;;;;;;4967173;28;20023;-57
2022/12/27 08:42:45;;;;;;;21.48;10.32;;;;;;;;;;4973125;28;20026;-58
2022/12/27 08:45:13;;;;;;;20.70;10.32;;;;;;;;;;4972793;28;20093;-59
2022/12/27 08:47:41;;;;;;;18.70;10.98;;;;;;;;;;4963002;28;20054;-58
2022/12/27 08:50:06;;;;;;;21.90;10.93;;;;;;;;;;4976484;28;20058;-57
2022/12/27 08:52:32;;;;;;;19.17;10.80;;;;;;;;;;4963404;28;20041;-57
2022/12/27 08:54:57;;;;;;;21.63;11.60;;;;;;;;;;4960507;28;20505;-57
2022/12/27 08:57:23;;;;;;;23.73;11.88;;;;;;;;;;4972710;28;20030;-56
2022/12/27 08:59:48;;;;;;;18.75;11.05;;;;;;;;;;4968883;28;20053;-58
2022/12/27 09:02:13;;;;;;;26.92;13.32;;;;;;;;;;4964927;28;20049;-58
2022/12/27 09:04:39;;;;;;;22.73;13.43;;;;;;;;;;4970180;28;20046;-58
2022/12/27 09:07:04;;;;;;;26.02;13.80;;;;;;;;;;4971047;28;20114;-59
2022/12/27 09:09:29;;;;;;;21.52;14.05;;;;;;;;;;4969677;28;20157;-58
2022/12/27 09:11:55;;;;;;;23.27;13.95;;;;;;;;;;4968190;28;20101;-56
2022/12/27 09:14:20;;;;;;;22.27;12.27;;;;;;;;;;4968833;28;20022;-57
2022/12/27 09:16:47;;;;;;;19.65;12.05;;;;;;;;;;4968323;28;20028;-58
2022/12/27 09:19:13;;;;;;;24.30;12.93;;;;;;;;;;4969058;28;20042;-57
2022/12/27 09:21:39;;;;;;;21.50;14.00;;;;;;;;;;4966055;28;20479;-58
2022/12/27 09:24:04;;;;;;;23.83;14.48;;;;;;;;;;4971026;28;20141;-58
2022/12/27 09:26:30;;;;;;;29.20;14.75;;;;;;;;;;4973006;28;20144;-57
2022/12/27 09:28:56;;;;;;;29.75;17.17;;;;;;;;;;4970808;28;20102;-57
2022/12/27 09:31:21;;;;;;;24.95;15.05;;;;;;;;;;4974676;28;20491;-57
2022/12/27 09:33:47;;;;;;;23.45;13.88;;;;;;;;;;4974759;28;20038;-58
2022/12/27 09:36:14;;;;;;;19.80;12.02;;;;;;;;;;4973484;28;20100;-58
2022/12/27 09:38:40;;;;;;;16.23;10.60;;;;;;;;;;4973895;28;20031;-58
2022/12/27 09:41:10;;;;;;;17.05;10.98;;;;;;;;;;4975568;28;20511;-57
2022/12/27 09:43:39;;;;;;;18.00;9.93;;;;;;;;;;4975610;28;20126;-59
2022/12/27 09:46:08;;;;;;;18.33;9.93;;;;;;;;;;4977488;28;20058;-58
2022/12/27 09:48:37;;;;;;;21.95;9.40;;;;;;;;;;4978482;28;20041;-58
2022/12/27 09:51:07;;;;;;;15.02;8.60;;;;;;;;;;4977986;28;20027;-57
2022/12/27 09:53:51;;;;;;;15.60;9.10;;;;;;;;;;4977819;28;20115;-58
2022/12/27 09:56:21;;;;;;;16.10;9.02;;;;;;;;;;4977410;28;20742;-57
2022/12/27 09:58:50;;;;;;;15.75;8.40;;;;;;;;;;4978881;28;20509;-58
2022/12/27 10:01:29;;;;;;;17.85;9.35;;;;;;;;;;4976592;28;20105;-58
2022/12/27 10:03:55;;;;;;;17.70;9.70;;;;;;;;;;4976298;28;20035;-58
2022/12/27 10:06:23;;;;;;;20.40;9.82;;;;;;;;;;4979250;28;20045;-57
2022/12/27 10:08:57;;;;;;;15.82;8.73;;;;;;;;;;4978501;28;20042;-57
2022/12/27 10:11:37;;;;;;;16.20;9.00;;;;;;;;;;4991837;28;20122;-55
2022/12/27 10:14:21;;;;;;;17.95;9.98;;;;;;;;;;4979232;28;20038;-57
2022/12/27 10:17:00;;;;;;;18.98;9.82;;;;;;;;;;4976709;28;20034;-57
2022/12/27 10:19:35;;;;;;;14.73;9.57;;;;;;;;;;4978333;28;20088;-56
2022/12/27 10:22:00;;;;;;;14.35;7.40;;;;;;;;;;4979261;28;20123;-57
2022/12/27 10:24:32;;;;;;;11.18;5.20;;;;;;;;;;4975258;28;20121;-57
2022/12/27 10:26:58;;;;;;;13.02;5.45;;;;;;;;;;4973898;28;20031;-57
2022/12/27 10:29:24;;;;;;;9.35;4.68;;;;;;;;;;4977580;28;20516;-58
2022/12/27 10:31:53;;;;;;;8.52;4.68;;;;;;;;;;4978217;28;20084;-58
2022/12/27 10:34:23;;;;;;;9.30;5.28;;;;;;;;;;4975481;28;20038;-58
2022/12/27 10:36:49;;;;;;;12.75;5.50;;;;;;;;;;4977486;28;20035;-54
2022/12/27 10:39:16;;;;;;;9.88;4.50;;;;;;;;;;4974913;28;20055;-56
2022/12/27 10:42:00;;;;;;;10.57;5.78;;;;;;;;;;4972269;28;20114;-58
2022/12/27 10:44:27;;;;;;;9.27;4.68;;;;;;;;;;4974301;28;20027;-55
2022/12/27 10:46:53;;;;;;;11.77;5.20;;;;;;;;;;4977144;28;20030;-56
2022/12/27 10:49:26;;;;;;;4.57;2.23;;;;;;;;;;4976183;28;20027;-57
2022/12/27 10:51:53;;;;;;;7.38;2.47;;;;;;;;;;4975898;28;20105;-57
2022/12/27 10:54:42;;;;;;;4.93;2.33;;;;;;;;;;4974769;28;20040;-58
2022/12/27 10:57:23;;;;;;;9.27;2.65;;;;;;;;;;4974968;28;20034;-57
2022/12/27 11:00:06;;;;;;;4.00;2.13;;;;;;;;;;4971982;28;20061;-58
2022/12/27 11:02:47;;;;;;;5.20;2.00;;;;;;;;;;4968690;28;20848;-57
2022/12/27 11:05:18;;;;;;;5.63;2.00;;;;;;;;;;4971280;28;20481;-57
2022/12/27 11:07:43;;;;;;;7.85;2.10;;;;;;;;;;4970452;28;20034;-58
2022/12/27 11:10:22;;;;;;;5.82;2.30;;;;;;;;;;4972004;28;20023;-57
2022/12/27 11:13:02;;;;;;;6.22;2.40;;;;;;;;;;4971510;28;20501;-57
2022/12/27 11:15:29;;;;;;;7.30;2.20;;;;;;;;;;4975618;28;20042;-58
2022/12/27 11:17:56;;;;;;;4.68;2.33;;;;;;;;;;4974587;28;20700;-58
2022/12/27 11:20:23;;;;;;;7.30;2.33;;;;;;;;;;4971466;28;20034;-58
2022/12/27 11:22:55;;;;;;;7.03;2.33;;;;;;;;;;4972510;28;20076;-58
2022/12/27 11:25:20;;;;;;;6.82;2.58;;;;;;;;;;4973598;28;20038;-58
2022/12/27 11:27:47;;;;;;;6.22;2.33;;;;;;;;;;4974723;28;20033;-58
2022/12/27 11:30:20;;;;;;;10.90;2.53;;;;;;;;;;4970373;28;20034;-58
2022/12/27 11:32:46;;;;;;;5.18;2.13;;;;;;;;;;4969412;28;20058;-58
2022/12/27 11:35:16;;;;;;;9.73;2.17;;;;;;;;;;4976824;28;20045;-56
2022/12/27 11:37:42;;;;;;;4.90;2.10;;;;;;;;;;4970191;28;20039;-57
2022/12/27 11:40:20;;;;;;;4.50;2.13;;;;;;;;;;4969303;28;20026;-58
2022/12/27 11:42:48;;;;;;;6.25;2.00;;;;;;;;;;4969956;28;20026;-58
2022/12/27 11:45:21;;;;;;;7.85;2.55;;;;;;;;;;4970808;28;20042;-57
2022/12/27 11:47:47;;;;;;;47.17;20.65;;;;;;;;;;4967295;28;20323;-57
2022/12/27 11:50:18;;;;;;;6.20;2.85;;;;;;;;;;4968481;28;20896;-58
2022/12/27 11:52:58;;;;;;;6.55;2.00;;;;;;;;;;4966478;28;20077;-58
2022/12/27 11:55:27;;;;;;;6.88;1.80;;;;;;;;;;4987485;28;20039;-58
2022/12/27 11:57:55;;;;;;;7.85;2.28;;;;;;;;;;4973141;28;20039;-58
2022/12/27 12:00:22;;;;;;;6.90;2.28;;;;;;;;;;4953051;28;20022;-57
2022/12/27 12:02:54;;;;;;;6.60;2.55;;;;;;;;;;4974372;28;20041;-58
2022/12/27 12:05:34;;;;;;;69.20;22.60;;;;;;;;;;4970169;28;20046;-58
2022/12/27 12:08:16;;;;;;;11.23;3.60;;;;;;;;;;4973171;28;20913;-58
2022/12/27 12:10:45;;;;;;;5.07;2.15;;;;;;;;;;4978643;28;20031;-57
2022/12/27 12:13:10;;;;;;;4.55;2.03;;;;;;;;;;4973449;28;20038;-57
2022/12/27 12:15:40;;;;;;;7.45;2.25;;;;;;;;;;4972630;28;20026;-55
2022/12/27 12:18:06;;;;;;;6.90;2.45;;;;;;;;;;4973316;28;20041;-57
2022/12/27 12:20:35;;;;;;;5.55;2.25;;;;;;;;;;4972633;28;20030;-58
2022/12/27 12:23:15;;;;;;;7.07;2.80;;;;;;;;;;4971994;28;20062;-55
2022/12/27 12:25:40;;;;;;;6.63;2.30;;;;;;;;;;4973579;28;20096;-58
2022/12/27 12:28:24;;;;;;;7.03;2.63;;;;;;;;;;4979486;28;20500;-57
2022/12/27 12:30:56;;;;;;;5.65;2.20;;;;;;;;;;4974678;28;20092;-59
2022/12/27 12:33:34;;;;;;;6.18;2.00;;;;;;;;;;4972521;28;20030;-58
2022/12/27 12:36:02;;;;;;;7.93;2.58;;;;;;;;;;4969279;28;20034;-58
2022/12/27 12:38:33;;;;;;;9.90;2.10;;;;;;;;;;4970222;28;20027;-58
2022/12/27 12:41:02;;;;;;;6.55;2.67;;;;;;;;;;4974909;28;20038;-58
2022/12/27 12:43:46;;;;;;;7.55;2.05;;;;;;;;;;4977539;28;20074;-57
2022/12/27 12:46:11;;;;;;;6.50;2.72;;;;;;;;;;4972693;28;20069;-57
2022/12/27 12:48:43;;;;;;;6.93;2.58;;;;;;;;;;4974458;28;20030;-58
2022/12/27 12:51:25;;;;;;;8.35;3.22;;;;;;;;;;4964861;28;20065;-56
2022/12/27 12:54:11;;;;;;;5.45;2.55;;;;;;;;;;4972763;28;20158;-57
2022/12/27 12:56:43;;;;;;;7.97;2.60;;;;;;;;;;4962406;28;20600;-57
2022/12/27 12:59:11;;;;;;;4.57;2.53;;;;;;;;;;4974043;28;20034;-56
2022/12/27 13:01:36;;;;;;;6.63;2.72;;;;;;;;;;4973376;28;20057;-58
2022/12/27 13:04:01;;;;;;;6.25;2.85;;;;;;;;;;4976367;28;20401;-57
2022/12/27 13:06:30;;;;;;;7.65;2.60;;;;;;;;;;4973803;28;20033;-58
2022/12/27 13:09:08;;;;;;;4.50;2.80;;;;;;;;;;4970568;28;20026;-58
2022/12/27 13:11:49;;;;;;;6.70;2.80;;;;;;;;;;4970132;28;20041;-58
2022/12/27 13:14:33;;;;;;;8.38;2.75;;;;;;;;;;4972492;28;20780;-58
2022/12/27 13:17:21;;;;;;;4.15;2.60;;;;;;;;;;4971084;28;20022;-54
2022/12/27 13:19:53;;;;;;;7.75;3.03;;;;;;;;;;4969547;28;20070;-57
2022/12/27 13:22:30;;;;;;;9.07;4.45;;;;;;;;;;4976284;28;20031;-57
2022/12/27 13:25:01;;;;;;;5.57;2.80;;;;;;;;;;4973866;28;20700;-56
2022/12/27 13:27:27;;;;;;;7.25;2.40;;;;;;;;;;4975041;28;20089;-57
2022/12/27 13:30:14;;;;;;;6.55;2.47;;;;;;;;;;4975376;28;20034;-57
2022/12/27 13:32:58;;;;;;;7.38;2.30;;;;;;;;;;4976056;28;20397;-57
2022/12/27 13:35:26;;;;;;;6.00;2.30;;;;;;;;;;4976510;28;20785;-57
2022/12/27 13:37:54;;;;;;;4.50;1.98;;;;;;;;;;4975444;28;20131;-57
2022/12/27 13:40:38;;;;;;;6.95;2.47;;;;;;;;;;4976678;28;20545;-55
2022/12/27 13:43:18;;;;;;;5.60;2.38;;;;;;;;;;4976062;28;20030;-55
2022/12/27 13:45:45;;;;;;;6.43;2.38;;;;;;;;;;4977898;28;20066;-57
2022/12/27 13:48:16;;;;;;;8.07;2.33;;;;;;;;;;4978466;28;20388;-57
2022/12/27 13:50:42;;;;;;;5.25;2.10;;;;;;;;;;4975796;28;20460;-57
2022/12/27 13:53:16;;;;;;;9.13;2.20;;;;;;;;;;4976015;28;20032;-57
2022/12/27 13:56:07;;;;;;;4.20;2.00;;;;;;;;;;4979253;28;20039;-57
2022/12/27 13:58:32;;;;;;;6.93;2.25;;;;;;;;;;4976239;28;20790;-57
2022/12/27 14:01:16;;;;;;;6.53;3.13;;;;;;;;;;4976586;28;20541;-57
2022/12/27 14:03:44;;;;;;;5.30;2.30;;;;;;;;;;4977276;28;20034;-57
2022/12/27 14:06:10;;;;;;;6.65;2.78;;;;;;;;;;4978585;28;20472;-58
2022/12/27 14:08:56;;;;;;;8.07;3.05;;;;;;;;;;4976717;28;20034;-58
2022/12/27 14:11:21;;;;;;;10.20;3.40;;;;;;;;;;4974864;28;20050;-56
2022/12/27 14:13:47;;;;;;;7.32;3.10;;;;;;;;;;4972733;28;20563;-56
2022/12/27 14:16:51;;;;;;;8.15;3.17;;;;;;;;;;4972882;28;20030;-54
2022/12/27 14:19:17;;;;;;;7.80;2.67;;;;;;;;;;4943033;28;20043;-56
2022/12/27 14:22:03;;;;;;;7.88;2.50;;;;;;;;;;4943391;28;20379;-57
2022/12/27 14:24:51;;;;;;;7.03;3.03;;;;;;;;;;4962824;28;20070;-56
2022/12/27 14:27:32;;;;;;;6.15;2.80;;;;;;;;;;4975691;28;20046;-57
2022/12/27 14:30:16;;;;;;;9.82;3.58;;;;;;;;;;4976884;28;20134;-57
2022/12/27 14:32:48;;;;;;;9.27;3.30;;;;;;;;;;4973315;28;20032;-56
2022/12/27 14:35:33;;;;;;;8.15;2.40;;;;;;;;;;4974243;28;20186;-56
2022/12/27 14:38:17;;;;;;;6.80;2.80;;;;;;;;;;4975044;28;20146;-56
2022/12/27 14:40:48;;;;;;;7.28;2.85;;;;;;;;;;4975933;28;20074;-56
2022/12/27 14:43:32;;;;;;;9.15;3.45;;;;;;;;;;4974087;28;20083;-57
2022/12/27 14:46:00;;;;;;;15.50;5.75;;;;;;;;;;4977428;28;20056;-58
2022/12/27 14:48:44;;;;;;;12.27;4.43;;;;;;;;;;4980034;28;20066;-57
2022/12/27 14:51:29;;;;;;;11.85;3.50;;;;;;;;;;4976742;28;20034;-58
2022/12/27 14:54:10;;;;;;;7.38;2.78;;;;;;;;;;4973880;28;20734;-57
2022/12/27 14:56:43;;;;;;;10.48;2.58;;;;;;;;;;4979418;28;20026;-57
2022/12/27 14:59:08;;;;;;;14.80;2.70;;;;;;;;;;4989958;28;20030;-57
2022/12/27 15:01:36;;;;;;;5.75;2.15;;;;;;;;;;4975342;28;20390;-56
2022/12/27 15:04:21;;;;;;;7.57;2.50;;;;;;;;;;4972224;28;20039;-56
2022/12/27 15:06:47;;;;;;;12.52;2.60;;;;;;;;;;4945867;28;20047;-55
2022/12/27 15:09:16;;;;;;;7.60;2.72;;;;;;;;;;4971257;28;20045;-57
2022/12/27 15:12:00;;;;;;;5.63;2.75;;;;;;;;;;4972855;28;20039;-57
2022/12/27 15:14:39;;;;;;;8.77;3.15;;;;;;;;;;4974122;28;20075;-57
2022/12/27 15:17:24;;;;;;;11.00;3.97;;;;;;;;;;4972003;28;20030;-57
2022/12/27 15:20:01;;;;;;;9.43;2.75;;;;;;;;;;4973708;28;20038;-57
2022/12/27 15:22:34;;;;;;;5.22;2.88;;;;;;;;;;4988921;28;20140;-55
2022/12/27 15:25:05;;;;;;;30.80;10.27;;;;;;;;;;4971570;28;20129;-56
2022/12/27 15:27:40;;;;;;;75.22;24.50;;;;;;;;;;4974748;28;20034;-57
2022/12/27 15:30:21;;;;;;;13.48;6.05;;;;;;;;;;4971711;28;20034;-55
2022/12/27 15:32:55;;;;;;;15.75;5.13;;;;;;;;;;4974887;28;20673;-57
2022/12/27 15:35:21;;;;;;;7.97;3.97;;;;;;;;;;4976069;28;20454;-57
2022/12/27 15:37:46;;;;;;;8.98;4.00;;;;;;;;;;4974991;28;20038;-57
2022/12/27 15:40:30;;;;;;;9.07;4.00;;;;;;;;;;4974768;28;20041;-57
2022/12/27 15:42:55;;;;;;;7.40;3.65;;;;;;;;;;4974186;28;20034;-56
2022/12/27 15:45:47;;;;;;;8.13;3.83;;;;;;;;;;4976563;28;20048;-57
2022/12/27 15:48:27;;;;;;;14.05;5.35;;;;;;;;;;4963323;28;20043;-57
2022/12/27 15:50:58;;;;;;;12.93;5.63;;;;;;;;;;4975365;28;20038;-57
2022/12/27 15:53:33;;;;;;;12.32;6.22;;;;;;;;;;4973151;28;20053;-56
2022/12/27 15:55:58;;;;;;;11.77;4.63;;;;;;;;;;4973862;28;20035;-57
2022/12/27 15:58:25;;;;;;;12.38;5.43;;;;;;;;;;4971573;28;20034;-57
2022/12/27 16:01:09;;;;;;;11.87;5.30;;;;;;;;;;4973405;28;20097;-57
2022/12/27 16:03:36;;;;;;;11.52;5.07;;;;;;;;;;4973897;28;20039;-57
2022/12/27 16:06:02;;;;;;;13.85;5.85;;;;;;;;;;4971577;28;20102;-57
2022/12/27 16:08:29;;;;;;;10.88;5.15;;;;;;;;;;4973587;28;20030;-57
2022/12/27 16:10:55;;;;;;;10.45;5.85;;;;;;;;;;4972713;28;20081;-57
2022/12/27 16:13:35;;;;;;;10.82;7.00;;;;;;;;;;4973243;28;20034;-57
2022/12/27 16:16:00;;;;;;;11.07;7.13;;;;;;;;;;4971778;28;20496;-55
2022/12/27 16:18:29;;;;;;;11.82;6.78;;;;;;;;;;4975150;28;20058;-56
2022/12/27 16:21:00;;;;;;;8.77;5.85;;;;;;;;;;4971662;28;20050;-58
2022/12/27 16:23:30;;;;;;;10.60;6.18;;;;;;;;;;4972277;28;20035;-57
2022/12/27 16:26:05;;;;;;;15.07;7.35;;;;;;;;;;4972290;28;20030;-57
2022/12/27 16:28:32;;;;;;;22.92;11.13;;;;;;;;;;4972737;28;20477;-57
2022/12/27 16:30:58;;;;;;;26.35;14.27;;;;;;;;;;4972174;28;20053;-56
2022/12/27 16:33:33;;;;;;;28.35;14.80;;;;;;;;;;4972328;28;20509;-58